Time;durP1;ratioP1;P1;durP2;ratioP2;P2;SDS_P1;SDS_P2;PMS_P1;PMS_P2;Temp;Humidity;BMP_temperature;BMP_pressure;BME280_temperature;BME280_humidity;BME280_pressure;Samples;Min_cycle;Max_cycle;Signal;HPM_P1;HPM_P2
2022/09/11 00:01:21;;;;;;;9.80;6.93;;;14.60;99.90;;;;;;5052814;28;20307;-68
2022/09/11 00:03:47;;;;;;;8.10;7.30;;;14.60;99.90;;;;;;5046456;28;20174;-68
2022/09/11 00:06:15;;;;;;;10.20;7.10;;;14.60;99.90;;;;;;5058792;28;20194;-68
2022/09/11 00:08:42;;;;;;;11.07;7.30;;;14.60;99.90;;;;;;5053009;28;20182;-68
2022/09/11 00:11:16;;;;;;;6.87;6.27;;;14.60;99.90;;;;;;5050792;28;20736;-68
2022/09/11 00:13:43;;;;;;;7.93;6.73;;;14.50;99.90;;;;;;5053037;28;20279;-67
2022/09/11 00:16:22;;;;;;;7.00;6.23;;;14.60;99.90;;;;;;5052065;28;20186;-68
2022/09/11 00:18:49;;;;;;;9.00;6.73;;;14.50;99.90;;;;;;5034066;28;20195;-67
2022/09/11 00:21:16;;;;;;;6.67;5.97;;;14.50;99.90;;;;;;5049720;28;20609;-67
2022/09/11 00:23:41;;;;;;;10.60;7.17;;;14.50;99.90;;;;;;5057533;28;20191;-68
2022/09/11 00:26:07;;;;;;;8.70;6.77;;;14.50;99.90;;;;;;5050968;28;20204;-65
2022/09/11 00:28:33;;;;;;;6.43;5.83;;;14.50;99.90;;;;;;5058551;28;20240;-69
2022/09/11 00:31:01;;;;;;;6.63;5.93;;;14.40;99.90;;;;;;5049928;28;20371;-64
2022/09/11 00:33:27;;;;;;;12.10;6.30;;;14.40;99.90;;;;;;5052460;28;20237;-64
2022/09/11 00:35:59;;;;;;;7.43;6.07;;;14.40;99.90;;;;;;5037251;28;20213;-63
2022/09/11 00:38:31;;;;;;;7.97;6.27;;;14.40;99.90;;;;;;5057369;28;20218;-63
2022/09/11 00:40:58;;;;;;;7.10;6.23;;;14.40;99.90;;;;;;5054770;28;20199;-63
2022/09/11 00:43:25;;;;;;;6.73;6.03;;;14.40;99.90;;;;;;5053142;28;20234;-63
2022/09/11 00:46:04;;;;;;;6.43;5.73;;;14.40;99.90;;;;;;5051572;28;20290;-63
2022/09/11 00:48:34;;;;;;;8.53;6.67;;;14.40;99.90;;;;;;5054205;28;20211;-63
2022/09/11 00:51:02;;;;;;;7.37;5.80;;;14.50;99.90;;;;;;5048262;28;20202;-65
2022/09/11 00:53:30;;;;;;;10.07;6.07;;;14.40;99.90;;;;;;5056547;28;20210;-66
2022/09/11 00:55:59;;;;;;;9.57;5.70;;;14.50;99.90;;;;;;5054651;28;20199;-65
2022/09/11 00:58:29;;;;;;;6.70;5.90;;;14.50;99.90;;;;;;5056111;28;20308;-64
2022/09/11 01:00:55;;;;;;;6.50;5.57;;;14.50;99.90;;;;;;5052578;28;20277;-65
2022/09/11 01:03:23;;;;;;;5.87;5.30;;;14.50;99.90;;;;;;5052141;28;20621;-65
2022/09/11 01:05:51;;;;;;;8.03;5.73;;;14.40;99.90;;;;;;5051532;28;20199;-65
2022/09/11 01:08:16;;;;;;;6.70;6.03;;;14.40;99.90;;;;;;5055984;28;20222;-65
2022/09/11 01:10:47;;;;;;;6.83;5.80;;;14.40;99.90;;;;;;5060005;28;20198;-65
2022/09/11 01:13:20;;;;;;;8.37;6.60;;;14.40;99.90;;;;;;5051488;28;20579;-65
2022/09/11 01:16:02;;;;;;;8.53;6.53;;;14.40;99.90;;;;;;5053766;28;20984;-65
2022/09/11 01:18:43;;;;;;;7.13;5.77;;;14.40;99.90;;;;;;5065136;28;20506;-65
2022/09/11 01:21:34;;;;;;;6.47;5.87;;;14.40;99.90;;;;;;5059861;28;20182;-65
2022/09/11 01:24:37;;;;;;;7.33;5.97;;;14.40;99.90;;;;;;5055421;28;20268;-65
2022/09/11 01:27:36;;;;;;;11.40;6.53;;;14.40;99.90;;;;;;5055501;28;20657;-65
2022/09/11 01:30:06;;;;;;;7.97;6.70;;;14.40;99.90;;;;;;5063106;28;20240;-65
2022/09/11 01:32:46;;;;;;;6.77;6.07;;;14.30;99.90;;;;;;5054395;28;20356;-65
2022/09/11 01:35:19;;;;;;;5.47;4.97;;;14.40;99.90;;;;;;5052468;28;20186;-65
2022/09/11 01:37:58;;;;;;;6.03;5.40;;;14.40;99.90;;;;;;5046550;28;20203;-65
2022/09/11 01:40:30;;;;;;;7.33;5.60;;;14.40;99.90;;;;;;5049514;28;20218;-66
2022/09/11 01:43:04;;;;;;;6.10;5.50;;;14.40;99.90;;;;;;5046135;28;20261;-65
2022/09/11 01:45:32;;;;;;;6.77;5.83;;;14.40;99.90;;;;;;5063787;28;20193;-65
2022/09/11 01:47:59;;;;;;;6.60;5.67;;;14.30;99.90;;;;;;5065296;28;20726;-65
2022/09/11 01:50:27;;;;;;;5.93;5.33;;;14.30;99.90;;;;;;5060809;28;20282;-65
2022/09/11 01:52:57;;;;;;;6.13;5.47;;;14.30;99.90;;;;;;5063867;28;20339;-65
2022/09/11 01:55:33;;;;;;;7.90;5.53;;;14.30;99.90;;;;;;5062085;28;20248;-65
2022/09/11 01:58:05;;;;;;;6.60;6.00;;;14.20;99.90;;;;;;5045616;28;20285;-63
2022/09/11 02:00:34;;;;;;;6.03;5.53;;;14.20;99.90;;;;;;5056654;28;20187;-65
2022/09/11 02:03:05;;;;;;;6.80;5.80;;;14.20;99.90;;;;;;5063963;28;20206;-65
2022/09/11 02:06:01;;;;;;;6.47;5.27;;;14.20;99.90;;;;;;5063690;28;20616;-65
2022/09/11 02:08:59;;;;;;;7.07;5.07;;;14.10;99.90;;;;;;5042747;28;20221;-65
2022/09/11 02:11:24;;;;;;;6.60;5.30;;;14.10;99.90;;;;;;5039981;28;20626;-65
2022/09/11 02:14:00;;;;;;;5.97;5.37;;;14.10;99.90;;;;;;5060809;28;20297;-64
2022/09/11 02:16:43;;;;;;;6.97;5.03;;;14.10;99.90;;;;;;5051490;28;20928;-64
2022/09/11 02:19:12;;;;;;;6.33;4.80;;;14.10;99.90;;;;;;5058598;28;20193;-68
2022/09/11 02:21:39;;;;;;;5.50;5.00;;;14.00;99.90;;;;;;5061474;28;20202;-66
2022/09/11 02:24:05;;;;;;;5.53;5.03;;;14.00;99.90;;;;;;5054545;28;20186;-64
2022/09/11 02:26:36;;;;;;;5.27;4.73;;;14.00;99.90;;;;;;5055133;28;20247;-62
2022/09/11 02:29:02;;;;;;;5.47;4.87;;;13.90;99.90;;;;;;5055549;28;20212;-62
2022/09/11 02:31:27;;;;;;;5.20;4.80;;;13.90;99.90;;;;;;5067146;28;20197;-61
2022/09/11 02:33:53;;;;;;;6.50;6.00;;;13.90;99.90;;;;;;5064870;28;20750;-61
2022/09/11 02:36:31;;;;;;;7.00;5.70;;;13.90;99.90;;;;;;5061351;28;20288;-61
2022/09/11 02:39:21;;;;;;;6.73;5.53;;;13.80;99.90;;;;;;5054828;28;20380;-62
2022/09/11 02:42:06;;;;;;;8.13;6.43;;;13.80;99.90;;;;;;5057481;28;20182;-63
2022/09/11 02:44:46;;;;;;;8.20;5.93;;;13.80;99.90;;;;;;5057527;28;20186;-64
2022/09/11 02:47:31;;;;;;;5.93;5.40;;;13.70;99.90;;;;;;5049459;28;20208;-63
2022/09/11 02:50:14;;;;;;;8.33;6.00;;;13.70;99.90;;;;;;5063624;28;20201;-64
2022/09/11 02:52:54;;;;;;;6.30;5.70;;;13.70;99.90;;;;;;5054103;28;20222;-65
2022/09/11 02:55:30;;;;;;;6.83;5.63;;;13.60;99.90;;;;;;5056673;28;20178;-64
2022/09/11 02:58:14;;;;;;;7.67;5.73;;;13.60;99.90;;;;;;5056442;28;20241;-64
2022/09/11 03:00:40;;;;;;;6.53;5.93;;;13.60;99.90;;;;;;5058567;28;20198;-63
2022/09/11 03:03:06;;;;;;;7.00;5.70;;;13.60;99.90;;;;;;5051208;28;20217;-63
2022/09/11 03:05:31;;;;;;;6.47;5.83;;;13.60;99.90;;;;;;5056727;28;20209;-64
2022/09/11 03:07:57;;;;;;;6.33;5.13;;;13.60;99.90;;;;;;5054684;28;20213;-65
2022/09/11 03:10:23;;;;;;;7.33;6.17;;;13.60;99.90;;;;;;5055778;28;20285;-64
2022/09/11 03:12:48;;;;;;;7.47;6.30;;;13.60;99.90;;;;;;5056495;28;20211;-64
2022/09/11 03:15:15;;;;;;;8.07;6.97;;;13.70;99.90;;;;;;5056346;28;20302;-66
2022/09/11 03:17:41;;;;;;;8.47;7.67;;;13.80;99.90;;;;;;5054633;28;20364;-66
2022/09/11 03:20:08;;;;;;;8.13;7.40;;;13.90;99.90;;;;;;5061713;28;20199;-65
2022/09/11 03:22:33;;;;;;;7.70;6.97;;;13.90;99.90;;;;;;5060188;28;20213;-63
2022/09/11 03:24:58;;;;;;;8.00;7.30;;;14.00;99.90;;;;;;5052661;28;20310;-61
2022/09/11 03:27:24;;;;;;;8.40;7.27;;;14.10;99.90;;;;;;5054183;28;20198;-61
2022/09/11 03:29:49;;;;;;;9.20;7.97;;;14.20;99.90;;;;;;5048391;28;20546;-61
2022/09/11 03:32:15;;;;;;;11.33;9.17;;;14.20;99.90;;;;;;5048868;28;20674;-62
2022/09/11 03:34:41;;;;;;;10.53;9.30;;;14.20;99.90;;;;;;5065867;28;20178;-62
2022/09/11 03:37:06;;;;;;;11.80;10.63;;;14.20;99.90;;;;;;5055941;28;20298;-62
2022/09/11 03:39:32;;;;;;;12.30;11.00;;;14.20;99.90;;;;;;5053975;28;20617;-61
2022/09/11 03:41:57;;;;;;;11.90;10.53;;;14.20;99.90;;;;;;5061013;28;20188;-62
2022/09/11 03:44:23;;;;;;;11.87;10.70;;;14.20;99.90;;;;;;5051411;28;20197;-61
2022/09/11 03:46:48;;;;;;;11.73;10.60;;;14.20;99.90;;;;;;5044451;28;20193;-61
2022/09/11 03:49:14;;;;;;;13.17;11.57;;;14.10;99.90;;;;;;5054537;28;20533;-62
2022/09/11 03:51:40;;;;;;;16.00;12.20;;;14.00;99.90;;;;;;5046167;28;20931;-61
2022/09/11 03:54:06;;;;;;;12.37;10.87;;;13.90;99.90;;;;;;5055570;28;20692;-61
2022/09/11 03:56:31;;;;;;;15.23;13.13;;;14.00;99.90;;;;;;5049343;28;20226;-61
2022/09/11 03:58:59;;;;;;;12.40;11.07;;;14.00;99.90;;;;;;5056256;28;20628;-61
2022/09/11 04:01:24;;;;;;;12.20;10.43;;;14.00;99.90;;;;;;5055483;28;20633;-61
2022/09/11 04:03:50;;;;;;;12.97;11.00;;;14.00;99.90;;;;;;5049563;28;20304;-61
2022/09/11 04:06:15;;;;;;;12.00;10.70;;;14.10;99.90;;;;;;5054280;28;20734;-61
2022/09/11 04:08:41;;;;;;;12.23;10.73;;;14.10;99.90;;;;;;5062439;28;20680;-61
2022/09/11 04:11:07;;;;;;;10.90;9.70;;;14.20;99.90;;;;;;5061792;28;20237;-62
2022/09/11 04:13:35;;;;;;;13.90;11.33;;;14.20;99.90;;;;;;5062497;28;20210;-62
2022/09/11 04:16:03;;;;;;;14.27;11.53;;;14.20;99.90;;;;;;5060384;28;21103;-59
2022/09/11 04:18:31;;;;;;;13.77;11.40;;;14.20;99.90;;;;;;5051029;28;20212;-59
2022/09/11 04:20:57;;;;;;;16.80;11.73;;;14.20;99.90;;;;;;5051439;28;20704;-61
2022/09/11 04:23:22;;;;;;;12.13;10.87;;;14.20;99.90;;;;;;5044957;28;20199;-61
2022/09/11 04:25:48;;;;;;;14.57;11.27;;;14.20;99.90;;;;;;5047639;28;20194;-62
2022/09/11 04:28:14;;;;;;;16.67;12.87;;;14.20;99.90;;;;;;5044519;28;20210;-62
2022/09/11 04:30:41;;;;;;;17.07;12.20;;;14.10;99.90;;;;;;5049565;28;20216;-62
2022/09/11 04:33:07;;;;;;;16.83;12.67;;;14.10;99.90;;;;;;5053993;28;20293;-61
2022/09/11 04:35:38;;;;;;;18.93;13.63;;;14.10;99.90;;;;;;5058345;28;20187;-61
2022/09/11 04:38:03;;;;;;;17.60;13.47;;;14.20;99.90;;;;;;5054339;28;20198;-61
2022/09/11 04:40:29;;;;;;;15.60;13.57;;;14.20;99.90;;;;;;5060069;28;20212;-61
2022/09/11 04:42:54;;;;;;;18.23;13.67;;;14.20;99.90;;;;;;5053871;28;20198;-61
2022/09/11 04:45:19;;;;;;;19.13;14.27;;;14.20;99.90;;;;;;5047494;28;20674;-61
2022/09/11 04:47:45;;;;;;;15.57;11.40;;;14.30;99.90;;;;;;5053317;28;20202;-61
2022/09/11 04:50:11;;;;;;;18.33;13.60;;;14.20;99.90;;;;;;5049809;28;20236;-62
2022/09/11 04:52:38;;;;;;;16.40;12.37;;;14.30;99.90;;;;;;5058571;28;20348;-61
2022/09/11 04:55:03;;;;;;;18.90;13.03;;;14.20;99.90;;;;;;5063913;28;20739;-60
2022/09/11 04:57:30;;;;;;;18.07;12.60;;;14.30;99.90;;;;;;5059383;28;20194;-60
2022/09/11 04:59:57;;;;;;;20.03;13.20;;;14.30;99.90;;;;;;5055097;28;20240;-60
2022/09/11 05:02:22;;;;;;;18.37;13.97;;;14.30;99.90;;;;;;5056858;28;20206;-62
2022/09/11 05:04:48;;;;;;;18.90;13.73;;;14.30;99.90;;;;;;5055133;28;20179;-60
2022/09/11 05:07:14;;;;;;;16.27;12.60;;;14.40;99.90;;;;;;5056587;28;20613;-61
2022/09/11 05:09:39;;;;;;;21.67;14.17;;;14.40;99.90;;;;;;5068187;28;20178;-61
2022/09/11 05:12:05;;;;;;;19.03;14.50;;;14.40;99.90;;;;;;5057953;28;20716;-62
2022/09/11 05:14:34;;;;;;;20.70;13.53;;;14.50;99.90;;;;;;5054637;28;20231;-62
2022/09/11 05:17:00;;;;;;;21.00;15.00;;;14.50;99.90;;;;;;5062197;28;20189;-62
2022/09/11 05:19:25;;;;;;;20.63;14.93;;;14.50;99.90;;;;;;5059826;28;20223;-61
2022/09/11 05:21:51;;;;;;;24.17;16.33;;;14.60;99.90;;;;;;5062739;28;20214;-61
2022/09/11 05:24:16;;;;;;;22.97;15.63;;;14.60;99.90;;;;;;5055656;28;20301;-61
2022/09/11 05:26:42;;;;;;;21.03;14.13;;;14.60;99.90;;;;;;5061058;28;20196;-61
2022/09/11 05:29:12;;;;;;;24.63;16.80;;;14.60;99.90;;;;;;5052003;28;20205;-61
2022/09/11 05:31:38;;;;;;;24.67;15.67;;;14.60;99.90;;;;;;5048298;28;20240;-61
2022/09/11 05:34:04;;;;;;;25.20;17.40;;;14.60;99.90;;;;;;5058301;28;20996;-62
2022/09/11 05:36:30;;;;;;;24.30;16.17;;;14.60;99.90;;;;;;5057904;28;20204;-61
2022/09/11 05:38:56;;;;;;;26.10;16.20;;;14.60;99.90;;;;;;5051988;28;20206;-60
2022/09/11 05:41:21;;;;;;;30.50;16.57;;;14.70;99.90;;;;;;5048164;28;20269;-61
2022/09/11 05:43:47;;;;;;;23.87;15.37;;;14.70;99.90;;;;;;5060719;28;20309;-61
2022/09/11 05:46:17;;;;;;;22.00;16.50;;;14.80;99.90;;;;;;5063232;28;20191;-61
2022/09/11 05:48:43;;;;;;;26.43;17.07;;;14.80;99.90;;;;;;5061083;28;20219;-61
2022/09/11 05:51:19;;;;;;;22.90;15.50;;;14.70;99.90;;;;;;5059048;28;20203;-62
2022/09/11 05:53:45;;;;;;;28.07;18.33;;;14.60;99.90;;;;;;5055082;28;20937;-61
2022/09/11 05:56:16;;;;;;;28.07;17.60;;;14.60;99.90;;;;;;5057298;28;20198;-62
2022/09/11 05:58:43;;;;;;;26.37;17.67;;;14.60;99.90;;;;;;5059190;28;20670;-62
2022/09/11 06:01:15;;;;;;;26.87;18.20;;;14.70;99.90;;;;;;5062909;28;20218;-61
2022/09/11 06:03:41;;;;;;;25.03;18.20;;;14.70;99.90;;;;;;5064857;28;20289;-61
2022/09/11 06:06:09;;;;;;;26.93;19.87;;;14.80;99.90;;;;;;5062517;28;20256;-61
2022/09/11 06:08:35;;;;;;;25.13;18.10;;;14.80;99.90;;;;;;5064850;28;20213;-61
2022/09/11 06:11:05;;;;;;;25.70;17.17;;;14.90;99.90;;;;;;5055741;28;20689;-61
2022/09/11 06:13:33;;;;;;;27.90;19.37;;;15.00;99.90;;;;;;5054469;28;20222;-61
2022/09/11 06:15:59;;;;;;;25.33;18.73;;;15.00;99.90;;;;;;5057692;28;20201;-61
2022/09/11 06:18:25;;;;;;;25.50;17.73;;;15.00;99.90;;;;;;5054917;28;20203;-61
2022/09/11 06:21:18;;;;;;;21.53;16.47;;;15.10;99.90;;;;;;5052529;28;20202;-61
2022/09/11 06:23:45;;;;;;;22.07;16.47;;;15.20;99.90;;;;;;5049159;28;20210;-61
2022/09/11 06:26:12;;;;;;;25.97;16.57;;;15.30;99.90;;;;;;5059771;28;20324;-61
2022/09/11 06:28:39;;;;;;;23.33;17.33;;;15.40;99.90;;;;;;5056575;28;20225;-62
2022/09/11 06:31:06;;;;;;;22.60;17.10;;;15.40;99.90;;;;;;5054522;28;20206;-62
2022/09/11 06:33:33;;;;;;;22.00;16.57;;;15.50;99.90;;;;;;5054813;28;20305;-62
2022/09/11 06:36:00;;;;;;;22.37;15.80;;;15.50;99.90;;;;;;5061544;28;20230;-62
2022/09/11 06:38:27;;;;;;;18.67;16.10;;;15.60;99.90;;;;;;5054329;28;20274;-66
2022/09/11 06:40:53;;;;;;;18.00;15.33;;;15.60;99.90;;;;;;5053404;28;20613;-65
2022/09/11 06:43:19;;;;;;;21.00;15.83;;;15.70;99.90;;;;;;5055916;28;20222;-64
2022/09/11 06:45:47;;;;;;;21.37;15.87;;;15.70;99.90;;;;;;5052952;28;20191;-64
2022/09/11 06:48:15;;;;;;;20.93;16.70;;;15.80;99.90;;;;;;5060997;28;20214;-64
2022/09/11 06:50:41;;;;;;;21.30;15.73;;;15.90;99.90;;;;;;5053684;28;20201;-64
2022/09/11 06:53:07;;;;;;;19.70;15.57;;;15.90;99.90;;;;;;5053957;28;20210;-64
2022/09/11 06:55:34;;;;;;;20.80;14.83;;;16.00;99.90;;;;;;5050886;28;20221;-64
2022/09/11 06:58:01;;;;;;;18.07;15.50;;;16.10;99.90;;;;;;5043775;28;20195;-64
2022/09/11 07:00:26;;;;;;;20.73;14.73;;;16.20;99.90;;;;;;5051773;28;20665;-64
2022/09/11 07:02:52;;;;;;;18.70;14.87;;;16.30;99.90;;;;;;5049788;28;20194;-61
2022/09/11 07:05:21;;;;;;;17.57;13.87;;;16.30;99.90;;;;;;5056968;28;20237;-62
2022/09/11 07:07:47;;;;;;;17.40;13.43;;;16.30;99.90;;;;;;5053335;28;20214;-62
2022/09/11 07:10:13;;;;;;;19.77;15.00;;;16.20;99.90;;;;;;5053412;28;20206;-61
2022/09/11 07:12:38;;;;;;;15.33;13.60;;;16.20;99.90;;;;;;5052270;28;20214;-61
2022/09/11 07:15:06;;;;;;;15.57;12.73;;;16.30;99.90;;;;;;5051968;28;20190;-61
2022/09/11 07:17:31;;;;;;;17.83;14.07;;;16.40;99.90;;;;;;5051371;28;20194;-61
2022/09/11 07:19:57;;;;;;;15.60;13.00;;;16.40;99.90;;;;;;5059664;28;20699;-61
2022/09/11 07:22:22;;;;;;;18.83;14.77;;;16.40;99.90;;;;;;5049093;28;20191;-61
2022/09/11 07:24:48;;;;;;;17.93;13.63;;;16.40;99.90;;;;;;5057829;28;20199;-61
2022/09/11 07:27:13;;;;;;;15.53;13.17;;;16.40;99.90;;;;;;5052217;28;20198;-62
2022/09/11 07:29:39;;;;;;;13.67;12.17;;;16.50;99.90;;;;;;5054050;28;20541;-61
2022/09/11 07:32:04;;;;;;;16.03;13.17;;;16.60;99.90;;;;;;5053253;28;20226;-61
2022/09/11 07:34:30;;;;;;;18.17;12.37;;;16.60;99.90;;;;;;5052211;28;20218;-61
2022/09/11 07:36:55;;;;;;;15.33;13.07;;;16.50;99.90;;;;;;5064657;28;20621;-61
2022/09/11 07:39:21;;;;;;;15.30;12.67;;;16.50;99.90;;;;;;5049513;28;20205;-60
2022/09/11 07:41:46;;;;;;;13.43;11.00;;;16.70;99.90;;;;;;5053781;28;20198;-61
2022/09/11 07:44:13;;;;;;;15.33;11.57;;;16.80;99.90;;;;;;5048385;28;20313;-61
2022/09/11 07:46:40;;;;;;;16.70;12.10;;;16.90;99.90;;;;;;5051282;28;20203;-61
2022/09/11 07:49:06;;;;;;;13.80;12.03;;;17.00;99.90;;;;;;5050884;28;20659;-60
2022/09/11 07:51:33;;;;;;;14.90;12.17;;;17.20;99.90;;;;;;5047969;28;20190;-62
2022/09/11 07:53:58;;;;;;;16.50;12.23;;;17.50;99.90;;;;;;5043600;28;20720;-62
2022/09/11 07:56:25;;;;;;;17.67;12.47;;;17.40;99.90;;;;;;5052336;28;20194;-63
2022/09/11 07:58:53;;;;;;;15.03;12.57;;;17.40;99.90;;;;;;5052437;28;20227;-62
2022/09/11 08:01:21;;;;;;;13.57;11.90;;;17.50;99.90;;;;;;5059407;28;20251;-62
2022/09/11 08:03:48;;;;;;;13.43;11.77;;;17.50;99.90;;;;;;5062695;28;20206;-62
2022/09/11 08:06:16;;;;;;;17.27;12.63;;;17.50;99.90;;;;;;5061766;28;20286;-62
2022/09/11 08:08:42;;;;;;;15.17;12.00;;;17.70;99.90;;;;;;5053816;28;20227;-62
2022/09/11 08:11:11;;;;;;;15.53;12.87;;;17.50;99.90;;;;;;5049470;28;20216;-62
2022/09/11 08:13:37;;;;;;;14.67;11.70;;;17.50;99.90;;;;;;5051059;28;20786;-61
2022/09/11 08:16:03;;;;;;;15.73;12.63;;;17.50;99.90;;;;;;5045733;28;20195;-62
2022/09/11 08:18:29;;;;;;;14.87;12.60;;;17.50;99.90;;;;;;5051197;28;20201;-62
2022/09/11 08:21:03;;;;;;;14.87;12.00;;;17.40;99.90;;;;;;5050420;28;20220;-62
2022/09/11 08:23:31;;;;;;;16.43;12.37;;;17.50;99.90;;;;;;5050053;28;20587;-62
2022/09/11 08:26:09;;;;;;;14.30;12.77;;;17.70;99.90;;;;;;5057122;28;20193;-62
2022/09/11 08:28:36;;;;;;;16.00;12.47;;;17.80;99.90;;;;;;5055777;28;20197;-62
2022/09/11 08:31:02;;;;;;;13.10;11.70;;;17.90;99.90;;;;;;5056176;28;20277;-62
2022/09/11 08:33:28;;;;;;;14.60;12.53;;;17.90;99.90;;;;;;5060337;28;20261;-62
2022/09/11 08:35:54;;;;;;;19.40;13.00;;;17.90;99.90;;;;;;5062795;28;20938;-61
2022/09/11 08:38:19;;;;;;;15.07;11.57;;;18.00;99.90;;;;;;5060484;28;20202;-61
2022/09/11 08:40:46;;;;;;;16.97;10.50;;;18.30;99.90;;;;;;5057924;28;20213;-61
2022/09/11 08:43:23;;;;;;;17.10;11.20;;;18.30;99.90;;;;;;5056276;28;20189;-61
2022/09/11 08:45:53;;;;;;;15.03;10.33;;;18.30;99.90;;;;;;5053277;28;20187;-60
2022/09/11 08:48:36;;;;;;;14.67;11.37;;;18.30;99.90;;;;;;5057979;28;20206;-62
2022/09/11 08:51:03;;;;;;;12.57;10.07;;;18.10;99.90;;;;;;5064278;28;20672;-62
2022/09/11 08:53:31;;;;;;;18.93;12.83;;;18.00;99.90;;;;;;5053988;28;20370;-62
2022/09/11 08:56:05;;;;;;;14.10;11.30;;;18.00;99.90;;;;;;5053818;28;20248;-63
2022/09/11 08:58:43;;;;;;;12.37;11.00;;;17.90;99.90;;;;;;5053749;28;20229;-63
2022/09/11 09:01:27;;;;;;;15.27;10.77;;;18.00;99.90;;;;;;5052610;28;20267;-62
2022/09/11 09:04:25;;;;;;;12.77;11.13;;;18.20;99.90;;;;;;5055538;28;20210;-62
2022/09/11 09:07:20;;;;;;;14.63;11.87;;;18.40;99.90;;;;;;5054139;28;20622;-62
2022/09/11 09:10:04;;;;;;;15.73;11.80;;;18.40;99.90;;;;;;5048359;28;20255;-62
2022/09/11 09:13:07;;;;;;;12.40;10.13;;;18.30;99.90;;;;;;5054812;28;20188;-63
2022/09/11 09:16:05;;;;;;;14.10;11.83;;;18.50;99.90;;;;;;5049110;28;20198;-62
2022/09/11 09:18:35;;;;;;;13.60;10.70;;;18.70;99.90;;;;;;5054040;28;20192;-62
2022/09/11 09:21:12;;;;;;;16.63;11.43;;;18.70;99.90;;;;;;5062906;28;20181;-61
2022/09/11 09:23:43;;;;;;;11.47;10.10;;;18.70;99.90;;;;;;5053252;28;20702;-62
2022/09/11 09:26:17;;;;;;;13.10;10.57;;;18.90;99.90;;;;;;5057080;28;20189;-62
2022/09/11 09:28:50;;;;;;;12.00;10.10;;;19.10;99.90;;;;;;5057169;28;20218;-61
2022/09/11 09:31:20;;;;;;;11.57;10.03;;;19.10;99.90;;;;;;5064642;28;20200;-61
2022/09/11 09:34:11;;;;;;;15.97;11.60;;;19.10;99.90;;;;;;5056863;28;20303;-62
2022/09/11 09:36:56;;;;;;;10.73;9.47;;;19.20;99.90;;;;;;5058851;28;20193;-62
2022/09/11 09:39:22;;;;;;;14.33;10.17;;;19.30;99.90;;;;;;5056726;28;20203;-69
2022/09/11 09:42:11;;;;;;;9.67;8.67;;;19.40;99.90;;;;;;5061955;28;20199;-68
2022/09/11 09:44:45;;;;;;;10.77;8.43;;;19.50;99.90;;;;;;5062512;28;20287;-67
2022/09/11 09:47:13;;;;;;;13.13;9.87;;;19.60;99.90;;;;;;5054399;28;20602;-67
2022/09/11 09:49:39;;;;;;;11.43;10.23;;;19.30;99.90;;;;;;5052126;28;20206;-68
2022/09/11 09:52:17;;;;;;;10.47;9.00;;;19.30;99.90;;;;;;5055577;28;20211;-67
2022/09/11 09:54:48;;;;;;;10.93;9.47;;;19.10;99.90;;;;;;5059330;28;20222;-67
2022/09/11 09:57:14;;;;;;;10.50;8.33;;;18.90;99.90;;;;;;5056333;28;20200;-67
2022/09/11 09:59:54;;;;;;;10.80;9.70;;;18.70;99.90;;;;;;5031836;28;20235;-73
2022/09/11 10:02:39;;;;;;;11.97;9.37;;;18.80;99.90;;;;;;5052257;28;20222;-67
2022/09/11 10:05:40;;;;;;;11.97;9.70;;;18.80;99.90;;;;;;5052120;28;20205;-69
2022/09/11 10:08:24;;;;;;;11.30;9.37;;;19.00;99.90;;;;;;5043774;28;20235;-68
2022/09/11 10:10:57;;;;;;;10.13;8.87;;;19.20;99.90;;;;;;5054721;28;20274;-69
2022/09/11 10:13:28;;;;;;;13.23;9.13;;;19.30;99.90;;;;;;5050182;28;21187;-68
2022/09/11 10:16:00;;;;;;;10.97;9.40;;;19.40;99.90;;;;;;5056431;28;20188;-68
2022/09/11 10:18:31;;;;;;;10.97;9.20;;;19.40;99.90;;;;;;5051707;28;20277;-68
2022/09/11 10:21:11;;;;;;;10.87;8.50;;;19.30;99.90;;;;;;5053518;28;20235;-68
2022/09/11 10:23:59;;;;;;;10.07;8.40;;;19.60;99.90;;;;;;5052756;28;20327;-72
2022/09/11 10:26:36;;;;;;;8.90;8.00;;;19.70;99.90;;;;;;5058232;28;20278;-67
2022/09/11 10:29:25;;;;;;;10.30;7.83;;;20.00;99.90;;;;;;5052380;28;20209;-68
2022/09/11 10:31:53;;;;;;;9.97;8.10;;;20.00;99.90;;;;;;5061546;28;20200;-69
2022/09/11 10:34:21;;;;;;;8.93;8.03;;;20.00;99.90;;;;;;5054165;28;20216;-66
2022/09/11 10:37:01;;;;;;;10.07;8.53;;;19.90;99.90;;;;;;5057172;28;20663;-67
2022/09/11 10:39:30;;;;;;;10.37;8.57;;;20.10;99.90;;;;;;5055240;28;20583;-68
2022/09/11 10:41:58;;;;;;;10.80;7.33;;;20.20;99.90;;;;;;5062848;28;20192;-68
2022/09/11 10:44:26;;;;;;;7.80;7.00;;;20.60;99.90;;;;;;5053455;28;20281;-68
2022/09/11 10:47:05;;;;;;;8.03;7.23;;;20.90;99.90;;;;;;5050531;28;20213;-68
2022/09/11 10:49:32;;;;;;;7.87;7.03;;;21.20;99.90;;;;;;5052236;28;20218;-70
2022/09/11 10:52:24;;;;;;;7.13;6.53;;;21.00;99.90;;;;;;5052426;28;20191;-69
2022/09/11 10:55:04;;;;;;;7.23;6.57;;;20.50;99.90;;;;;;5051110;28;20237;-67
2022/09/11 10:57:43;;;;;;;9.27;7.33;;;20.30;99.90;;;;;;5061250;28;20207;-67
2022/09/11 11:00:22;;;;;;;8.07;6.87;;;20.20;99.90;;;;;;5052852;28;20696;-67
2022/09/11 11:03:03;;;;;;;9.07;8.10;;;20.10;99.90;;;;;;5050388;28;20233;-68
2022/09/11 11:05:51;;;;;;;9.50;7.53;;;20.00;99.90;;;;;;5062230;28;20288;-67
2022/09/11 11:08:39;;;;;;;9.30;8.40;;;19.80;99.90;;;;;;5055820;28;20294;-67
2022/09/11 11:11:49;;;;;;;9.07;6.97;;;19.40;99.90;;;;;;5051589;28;20217;-69
2022/09/11 11:14:26;;;;;;;7.63;6.93;;;19.20;99.90;;;;;;5052085;28;20245;-74
2022/09/11 11:17:22;;;;;;;9.80;8.23;;;19.30;99.90;;;;;;5053219;28;20187;-65
2022/09/11 11:20:08;;;;;;;10.40;8.03;;;19.40;99.90;;;;;;5052900;28;20603;-66
2022/09/11 11:23:00;;;;;;;11.27;8.40;;;19.80;99.90;;;;;;5056276;28;20189;-68
2022/09/11 11:25:37;;;;;;;8.87;7.80;;;20.20;99.90;;;;;;5054223;28;20191;-69
2022/09/11 11:28:15;;;;;;;9.87;7.17;;;20.30;99.90;;;;;;5055647;28;20187;-69
2022/09/11 11:31:02;;;;;;;9.00;8.10;;;20.40;99.90;;;;;;5052721;28;20206;-69
2022/09/11 11:34:11;;;;;;;8.00;6.93;;;20.40;99.90;;;;;;5051129;28;20227;-69
2022/09/11 11:36:48;;;;;;;7.70;7.00;;;20.20;99.90;;;;;;5055961;28;20530;-69
2022/09/11 11:39:28;;;;;;;8.77;6.43;;;20.30;99.90;;;;;;5053275;28;20230;-70
2022/09/11 11:42:06;;;;;;;7.60;6.90;;;20.50;99.90;;;;;;5054046;28;20527;-69
2022/09/11 11:44:51;;;;;;;6.60;6.00;;;20.80;99.90;;;;;;5055652;28;20677;-69
2022/09/11 11:47:19;;;;;;;6.73;6.00;;;21.10;99.90;;;;;;5047814;28;20213;-68
2022/09/11 11:50:05;;;;;;;6.40;5.87;;;21.10;99.90;;;;;;5051073;28;20722;-70
2022/09/11 11:52:30;;;;;;;11.50;10.30;;;20.80;99.90;;;;;;5056037;28;20198;-71
2022/09/11 11:55:00;;;;;;;7.30;6.60;;;20.50;99.90;;;;;;5050118;28;20206;-69
2022/09/11 11:57:31;;;;;;;6.80;6.17;;;20.30;99.90;;;;;;5045791;28;20190;-69
2022/09/11 12:00:06;;;;;;;5.77;5.27;;;20.10;99.90;;;;;;5050098;28;20301;-67
2022/09/11 12:02:34;;;;;;;5.90;5.40;;;20.20;99.90;;;;;;5053738;28;20186;-67
2022/09/11 12:05:19;;;;;;;6.13;5.53;;;20.60;99.90;;;;;;5047621;28;20198;-68
2022/09/11 12:07:46;;;;;;;6.30;5.33;;;20.70;99.90;;;;;;5050346;28;20237;-69
2022/09/11 12:10:33;;;;;;;5.70;5.20;;;21.00;99.90;;;;;;5047668;28;20256;-67
2022/09/11 12:13:02;;;;;;;6.00;5.30;;;21.20;99.90;;;;;;5057485;28;20213;-67
2022/09/11 12:15:31;;;;;;;6.53;5.93;;;21.20;99.90;;;;;;5062895;28;20749;-68
2022/09/11 12:18:14;;;;;;;5.87;5.23;;;21.10;99.90;;;;;;5053700;28;20202;-68
2022/09/11 12:20:44;;;;;;;5.17;4.47;;;21.00;99.90;;;;;;5054297;28;20206;-68
2022/09/11 12:23:29;;;;;;;7.03;5.17;;;20.90;99.90;;;;;;5051387;28;20982;-68
2022/09/11 12:26:08;;;;;;;5.40;4.90;;;20.50;99.90;;;;;;5051239;28;20380;-69
2022/09/11 12:28:34;;;;;;;5.60;4.33;;;20.30;99.90;;;;;;5053915;28;20197;-71
2022/09/11 12:31:01;;;;;;;5.33;4.07;;;20.10;99.90;;;;;;5057878;28;20736;-72
2022/09/11 12:33:49;;;;;;;4.50;4.10;;;20.10;99.90;;;;;;5047044;28;20275;-72
2022/09/11 12:36:35;;;;;;;4.73;4.23;;;20.20;99.90;;;;;;5052761;28;20185;-70
2022/09/11 12:39:21;;;;;;;5.00;4.60;;;20.40;99.90;;;;;;5052980;28;20207;-70
2022/09/11 12:41:46;;;;;;;4.93;4.47;;;20.30;99.90;;;;;;5047520;28;20197;-73
2022/09/11 12:44:51;;;;;;;4.73;4.33;;;20.20;99.90;;;;;;5047794;28;20282;-73
2022/09/11 12:47:35;;;;;;;5.30;4.50;;;20.00;99.90;;;;;;5054561;28;20240;-73
2022/09/11 12:50:03;;;;;;;4.77;3.93;;;20.00;99.90;;;;;;5053820;28;20342;-72
2022/09/11 12:52:49;;;;;;;4.03;3.73;;;20.00;99.90;;;;;;5053296;28;20193;-75
2022/09/11 12:55:40;;;;;;;4.97;4.07;;;20.00;99.90;;;;;;5024274;28;20199;-70
2022/09/11 12:58:20;;;;;;;5.17;4.43;;;20.10;99.90;;;;;;5052076;28;20195;-70
2022/09/11 13:00:59;;;;;;;5.50;5.00;;;20.00;99.90;;;;;;5050505;28;20312;-70